sensor_id;sensor_type;location;lat;lon;timestamp;temperature;humidity
42743;DHT22;28397;44.552;-0.848;2023-05-18T00:00:36;13.00;99.90
42743;DHT22;28397;44.552;-0.848;2023-05-18T00:03:02;12.90;99.90
42743;DHT22;28397;44.552;-0.848;2023-05-18T00:05:28;13.00;99.90
42743;DHT22;28397;44.552;-0.848;2023-05-18T00:07:59;13.00;99.90
42743;DHT22;28397;44.552;-0.848;2023-05-18T00:10:25;13.00;99.90
42743;DHT22;28397;44.552;-0.848;2023-05-18T00:12:51;12.90;99.90
42743;DHT22;28397;44.552;-0.848;2023-05-18T00:15:17;13.00;99.90
42743;DHT22;28397;44.552;-0.848;2023-05-18T00:17:42;13.00;99.90
42743;DHT22;28397;44.552;-0.848;2023-05-18T00:20:08;13.00;99.90
42743;DHT22;28397;44.552;-0.848;2023-05-18T00:22:34;13.10;99.90
42743;DHT22;28397;44.552;-0.848;2023-05-18T00:25:00;13.10;99.90
42743;DHT22;28397;44.552;-0.848;2023-05-18T00:27:26;13.10;99.90
42743;DHT22;28397;44.552;-0.848;2023-05-18T00:29:51;13.20;99.90
42743;DHT22;28397;44.552;-0.848;2023-05-18T00:32:17;13.20;99.90
42743;DHT22;28397;44.552;-0.848;2023-05-18T00:34:42;13.20;99.90
42743;DHT22;28397;44.552;-0.848;2023-05-18T00:37:08;13.20;99.90
42743;DHT22;28397;44.552;-0.848;2023-05-18T00:39:34;13.30;99.90
42743;DHT22;28397;44.552;-0.848;2023-05-18T00:41:59;13.20;99.90
42743;DHT22;28397;44.552;-0.848;2023-05-18T00:44:25;13.20;99.90
42743;DHT22;28397;44.552;-0.848;2023-05-18T00:46:51;13.20;99.90
42743;DHT22;28397;44.552;-0.848;2023-05-18T00:49:17;13.20;99.90
42743;DHT22;28397;44.552;-0.848;2023-05-18T00:51:43;13.20;99.90
42743;DHT22;28397;44.552;-0.848;2023-05-18T00:54:09;13.20;99.90
42743;DHT22;28397;44.552;-0.848;2023-05-18T00:56:36;13.20;99.90
42743;DHT22;28397;44.552;-0.848;2023-05-18T00:59:06;13.30;99.90
42743;DHT22;28397;44.552;-0.848;2023-05-18T01:01:33;13.20;99.90
42743;DHT22;28397;44.552;-0.848;2023-05-18T01:04:01;13.30;99.90
42743;DHT22;28397;44.552;-0.848;2023-05-18T01:06:28;13.30;99.90
42743;DHT22;28397;44.552;-0.848;2023-05-18T01:09:01;13.30;99.90
42743;DHT22;28397;44.552;-0.848;2023-05-18T01:14:32;13.30;99.90
42743;DHT22;28397;44.552;-0.848;2023-05-18T01:23:05;13.20;99.90
42743;DHT22;28397;44.552;-0.848;2023-05-18T01:28:20;13.20;99.90
42743;DHT22;28397;44.552;-0.848;2023-05-18T01:30:47;13.10;99.90
42743;DHT22;28397;44.552;-0.848;2023-05-18T01:33:14;13.10;99.90
42743;DHT22;28397;44.552;-0.848;2023-05-18T01:35:39;13.00;99.90
42743;DHT22;28397;44.552;-0.848;2023-05-18T01:38:20;13.00;99.90
42743;DHT22;28397;44.552;-0.848;2023-05-18T01:43:34;13.00;99.90
42743;DHT22;28397;44.552;-0.848;2023-05-18T01:48:59;12.90;99.90
42743;DHT22;28397;44.552;-0.848;2023-05-18T01:51:25;12.90;99.90
42743;DHT22;28397;44.552;-0.848;2023-05-18T01:54:02;12.80;99.90
42743;DHT22;28397;44.552;-0.848;2023-05-18T01:56:30;12.80;99.90
42743;DHT22;28397;44.552;-0.848;2023-05-18T01:58:57;12.70;99.90
42743;DHT22;28397;44.552;-0.848;2023-05-18T02:01:23;12.70;99.90
42743;DHT22;28397;44.552;-0.848;2023-05-18T02:03:49;12.70;99.90
42743;DHT22;28397;44.552;-0.848;2023-05-18T02:06:15;12.70;99.90
42743;DHT22;28397;44.552;-0.848;2023-05-18T02:08:41;12.70;99.90
42743;DHT22;28397;44.552;-0.848;2023-05-18T02:11:07;12.70;99.90
42743;DHT22;28397;44.552;-0.848;2023-05-18T02:13:33;12.70;99.90
42743;DHT22;28397;44.552;-0.848;2023-05-18T02:15:58;12.70;99.90
42743;DHT22;28397;44.552;-0.848;2023-05-18T02:18:24;12.70;99.90
42743;DHT22;28397;44.552;-0.848;2023-05-18T02:20:57;12.70;99.90
42743;DHT22;28397;44.552;-0.848;2023-05-18T02:23:24;12.60;99.90
42743;DHT22;28397;44.552;-0.848;2023-05-18T02:25:50;12.60;99.90
42743;DHT22;28397;44.552;-0.848;2023-05-18T02:28:16;12.60;99.90
42743;DHT22;28397;44.552;-0.848;2023-05-18T02:30:41;12.60;99.90
42743;DHT22;28397;44.552;-0.848;2023-05-18T02:33:07;12.60;99.90
42743;DHT22;28397;44.552;-0.848;2023-05-18T02:35:34;12.60;99.90
42743;DHT22;28397;44.552;-0.848;2023-05-18T02:38:00;12.50;99.90
42743;DHT22;28397;44.552;-0.848;2023-05-18T02:40:27;12.50;99.90
42743;DHT22;28397;44.552;-0.848;2023-05-18T02:42:52;12.50;99.90
42743;DHT22;28397;44.552;-0.848;2023-05-18T02:45:18;12.50;99.90
42743;DHT22;28397;44.552;-0.848;2023-05-18T02:47:45;12.40;99.90
42743;DHT22;28397;44.552;-0.848;2023-05-18T02:50:11;12.40;99.90
42743;DHT22;28397;44.552;-0.848;2023-05-18T02:52:37;12.40;99.90
42743;DHT22;28397;44.552;-0.848;2023-05-18T02:55:06;12.40;99.90
42743;DHT22;28397;44.552;-0.848;2023-05-18T02:57:32;12.30;99.90
42743;DHT22;28397;44.552;-0.848;2023-05-18T02:59:58;12.30;99.90
42743;DHT22;28397;44.552;-0.848;2023-05-18T03:02:24;12.30;99.90
42743;DHT22;28397;44.552;-0.848;2023-05-18T03:04:52;12.30;99.90
42743;DHT22;28397;44.552;-0.848;2023-05-18T03:07:22;12.30;99.90
42743;DHT22;28397;44.552;-0.848;2023-05-18T03:09:47;12.30;99.90
42743;DHT22;28397;44.552;-0.848;2023-05-18T03:12:13;12.30;99.90
42743;DHT22;28397;44.552;-0.848;2023-05-18T03:14:39;12.30;99.90
42743;DHT22;28397;44.552;-0.848;2023-05-18T03:17:05;12.30;99.90
42743;DHT22;28397;44.552;-0.848;2023-05-18T03:19:31;12.30;99.90
42743;DHT22;28397;44.552;-0.848;2023-05-18T03:21:59;12.20;99.90
42743;DHT22;28397;44.552;-0.848;2023-05-18T03:24:25;12.20;99.90
42743;DHT22;28397;44.552;-0.848;2023-05-18T03:26:51;12.30;99.90
42743;DHT22;28397;44.552;-0.848;2023-05-18T03:29:19;12.30;99.90
42743;DHT22;28397;44.552;-0.848;2023-05-18T03:31:45;12.30;99.90
42743;DHT22;28397;44.552;-0.848;2023-05-18T03:34:11;12.20;99.90
42743;DHT22;28397;44.552;-0.848;2023-05-18T03:36:37;12.20;99.90
42743;DHT22;28397;44.552;-0.848;2023-05-18T03:39:03;12.20;99.90
42743;DHT22;28397;44.552;-0.848;2023-05-18T03:41:31;12.10;99.90
42743;DHT22;28397;44.552;-0.848;2023-05-18T03:43:57;12.10;99.90
42743;DHT22;28397;44.552;-0.848;2023-05-18T03:46:23;12.10;99.90
42743;DHT22;28397;44.552;-0.848;2023-05-18T03:48:49;12.10;99.90
42743;DHT22;28397;44.552;-0.848;2023-05-18T03:51:15;12.00;99.90
42743;DHT22;28397;44.552;-0.848;2023-05-18T03:53:40;12.00;99.90
42743;DHT22;28397;44.552;-0.848;2023-05-18T03:56:07;12.00;99.90
42743;DHT22;28397;44.552;-0.848;2023-05-18T03:58:33;12.10;99.90
42743;DHT22;28397;44.552;-0.848;2023-05-18T04:00:59;12.00;99.90
42743;DHT22;28397;44.552;-0.848;2023-05-18T04:03:26;12.00;99.90
42743;DHT22;28397;44.552;-0.848;2023-05-18T04:05:52;12.00;99.90
42743;DHT22;28397;44.552;-0.848;2023-05-18T04:08:18;11.90;99.90
42743;DHT22;28397;44.552;-0.848;2023-05-18T04:10:44;11.90;99.90
42743;DHT22;28397;44.552;-0.848;2023-05-18T04:13:11;11.80;99.90
42743;DHT22;28397;44.552;-0.848;2023-05-18T04:15:37;11.80;99.90
42743;DHT22;28397;44.552;-0.848;2023-05-18T04:18:03;11.80;99.90
42743;DHT22;28397;44.552;-0.848;2023-05-18T04:20:28;11.80;99.90
42743;DHT22;28397;44.552;-0.848;2023-05-18T04:22:55;11.80;99.90
42743;DHT22;28397;44.552;-0.848;2023-05-18T04:25:24;11.80;99.90
42743;DHT22;28397;44.552;-0.848;2023-05-18T04:27:52;11.80;99.90
42743;DHT22;28397;44.552;-0.848;2023-05-18T04:30:19;11.80;99.90
42743;DHT22;28397;44.552;-0.848;2023-05-18T04:32:48;11.70;99.90
42743;DHT22;28397;44.552;-0.848;2023-05-18T04:35:15;11.70;99.90
42743;DHT22;28397;44.552;-0.848;2023-05-18T04:37:41;11.70;99.90
42743;DHT22;28397;44.552;-0.848;2023-05-18T04:40:10;11.70;99.90
42743;DHT22;28397;44.552;-0.848;2023-05-18T04:42:42;11.70;99.90
42743;DHT22;28397;44.552;-0.848;2023-05-18T04:45:18;11.60;99.90
42743;DHT22;28397;44.552;-0.848;2023-05-18T04:47:50;11.60;99.90
42743;DHT22;28397;44.552;-0.848;2023-05-18T04:50:20;11.50;99.90
42743;DHT22;28397;44.552;-0.848;2023-05-18T04:52:51;11.40;99.90
42743;DHT22;28397;44.552;-0.848;2023-05-18T04:55:19;11.40;99.90
42743;DHT22;28397;44.552;-0.848;2023-05-18T04:57:52;11.40;99.90
42743;DHT22;28397;44.552;-0.848;2023-05-18T05:00:24;11.40;99.90
42743;DHT22;28397;44.552;-0.848;2023-05-18T05:02:50;11.30;99.90
42743;DHT22;28397;44.552;-0.848;2023-05-18T05:05:16;11.40;99.90
42743;DHT22;28397;44.552;-0.848;2023-05-18T05:07:42;11.40;99.90
42743;DHT22;28397;44.552;-0.848;2023-05-18T05:10:08;11.50;99.90
42743;DHT22;28397;44.552;-0.848;2023-05-18T05:12:37;11.50;99.90
42743;DHT22;28397;44.552;-0.848;2023-05-18T05:15:03;11.60;99.90
42743;DHT22;28397;44.552;-0.848;2023-05-18T05:17:29;11.60;99.90
42743;DHT22;28397;44.552;-0.848;2023-05-18T05:19:55;11.50;99.90
42743;DHT22;28397;44.552;-0.848;2023-05-18T05:22:20;11.60;99.90
42743;DHT22;28397;44.552;-0.848;2023-05-18T05:24:46;11.50;99.90
42743;DHT22;28397;44.552;-0.848;2023-05-18T05:27:12;11.50;99.90
42743;DHT22;28397;44.552;-0.848;2023-05-18T05:29:37;11.60;99.90
42743;DHT22;28397;44.552;-0.848;2023-05-18T05:32:03;11.60;99.90
42743;DHT22;28397;44.552;-0.848;2023-05-18T05:34:29;11.70;99.90
42743;DHT22;28397;44.552;-0.848;2023-05-18T05:36:56;11.80;99.90
42743;DHT22;28397;44.552;-0.848;2023-05-18T05:39:22;11.80;99.90
42743;DHT22;28397;44.552;-0.848;2023-05-18T05:41:47;11.90;99.90
42743;DHT22;28397;44.552;-0.848;2023-05-18T05:44:13;11.80;99.90
42743;DHT22;28397;44.552;-0.848;2023-05-18T05:46:39;11.90;99.90
42743;DHT22;28397;44.552;-0.848;2023-05-18T05:49:04;11.90;99.90
42743;DHT22;28397;44.552;-0.848;2023-05-18T05:51:30;11.90;99.90
42743;DHT22;28397;44.552;-0.848;2023-05-18T05:53:56;12.00;99.90
42743;DHT22;28397;44.552;-0.848;2023-05-18T05:56:21;12.10;99.90
42743;DHT22;28397;44.552;-0.848;2023-05-18T05:58:47;12.00;99.90
42743;DHT22;28397;44.552;-0.848;2023-05-18T06:01:13;12.10;99.90
42743;DHT22;28397;44.552;-0.848;2023-05-18T06:03:38;12.10;99.90
42743;DHT22;28397;44.552;-0.848;2023-05-18T06:06:04;12.20;99.90
42743;DHT22;28397;44.552;-0.848;2023-05-18T06:08:30;12.30;99.90
42743;DHT22;28397;44.552;-0.848;2023-05-18T06:10:56;12.30;99.90
42743;DHT22;28397;44.552;-0.848;2023-05-18T06:13:21;12.30;99.90
42743;DHT22;28397;44.552;-0.848;2023-05-18T06:15:47;12.40;99.90
42743;DHT22;28397;44.552;-0.848;2023-05-18T06:18:12;12.40;99.90
42743;DHT22;28397;44.552;-0.848;2023-05-18T06:20:38;12.40;99.90
42743;DHT22;28397;44.552;-0.848;2023-05-18T06:23:04;12.30;99.90
42743;DHT22;28397;44.552;-0.848;2023-05-18T06:25:30;12.30;99.90
42743;DHT22;28397;44.552;-0.848;2023-05-18T06:27:55;12.30;99.90
42743;DHT22;28397;44.552;-0.848;2023-05-18T06:30:21;12.40;99.90
42743;DHT22;28397;44.552;-0.848;2023-05-18T06:32:47;12.50;99.90
42743;DHT22;28397;44.552;-0.848;2023-05-18T06:35:12;12.60;99.90
42743;DHT22;28397;44.552;-0.848;2023-05-18T06:37:38;12.50;99.90
42743;DHT22;28397;44.552;-0.848;2023-05-18T06:40:05;12.50;99.90
42743;DHT22;28397;44.552;-0.848;2023-05-18T06:42:32;12.60;99.90
42743;DHT22;28397;44.552;-0.848;2023-05-18T06:44:58;12.70;99.90
42743;DHT22;28397;44.552;-0.848;2023-05-18T06:47:24;12.80;99.90
42743;DHT22;28397;44.552;-0.848;2023-05-18T06:49:50;12.80;99.90
42743;DHT22;28397;44.552;-0.848;2023-05-18T06:52:15;13.00;99.90
42743;DHT22;28397;44.552;-0.848;2023-05-18T06:54:41;13.00;99.90
42743;DHT22;28397;44.552;-0.848;2023-05-18T06:57:07;13.00;99.90
42743;DHT22;28397;44.552;-0.848;2023-05-18T06:59:33;13.10;99.90
42743;DHT22;28397;44.552;-0.848;2023-05-18T07:01:59;13.10;99.90
42743;DHT22;28397;44.552;-0.848;2023-05-18T07:04:25;13.10;99.90
42743;DHT22;28397;44.552;-0.848;2023-05-18T07:06:51;13.20;99.90
42743;DHT22;28397;44.552;-0.848;2023-05-18T07:09:18;13.40;99.90
42743;DHT22;28397;44.552;-0.848;2023-05-18T07:11:43;13.30;99.90
42743;DHT22;28397;44.552;-0.848;2023-05-18T07:14:10;13.30;99.90
42743;DHT22;28397;44.552;-0.848;2023-05-18T07:16:35;13.40;99.90
42743;DHT22;28397;44.552;-0.848;2023-05-18T07:19:02;13.50;99.90
42743;DHT22;28397;44.552;-0.848;2023-05-18T07:21:29;13.60;99.90
42743;DHT22;28397;44.552;-0.848;2023-05-18T07:23:55;13.60;99.90
42743;DHT22;28397;44.552;-0.848;2023-05-18T07:26:21;13.60;99.90
42743;DHT22;28397;44.552;-0.848;2023-05-18T07:28:48;13.70;99.90
42743;DHT22;28397;44.552;-0.848;2023-05-18T07:31:13;13.80;99.90
42743;DHT22;28397;44.552;-0.848;2023-05-18T07:33:41;13.80;99.90
42743;DHT22;28397;44.552;-0.848;2023-05-18T07:36:07;13.90;99.90
42743;DHT22;28397;44.552;-0.848;2023-05-18T07:38:32;14.00;99.90
42743;DHT22;28397;44.552;-0.848;2023-05-18T07:40:58;14.10;99.90
42743;DHT22;28397;44.552;-0.848;2023-05-18T07:43:26;14.10;99.90
42743;DHT22;28397;44.552;-0.848;2023-05-18T07:45:52;14.20;99.90
42743;DHT22;28397;44.552;-0.848;2023-05-18T07:48:18;14.20;99.90
42743;DHT22;28397;44.552;-0.848;2023-05-18T07:50:43;14.20;99.90
42743;DHT22;28397;44.552;-0.848;2023-05-18T07:53:09;14.30;99.90
42743;DHT22;28397;44.552;-0.848;2023-05-18T07:55:35;14.40;99.90
42743;DHT22;28397;44.552;-0.848;2023-05-18T07:58:00;14.40;99.90
42743;DHT22;28397;44.552;-0.848;2023-05-18T08:00:26;14.50;99.90
42743;DHT22;28397;44.552;-0.848;2023-05-18T08:02:52;14.60;99.90
42743;DHT22;28397;44.552;-0.848;2023-05-18T08:05:18;14.60;99.90
42743;DHT22;28397;44.552;-0.848;2023-05-18T08:07:47;14.60;99.90
42743;DHT22;28397;44.552;-0.848;2023-05-18T08:10:12;14.70;99.90
42743;DHT22;28397;44.552;-0.848;2023-05-18T08:12:38;14.80;99.90
42743;DHT22;28397;44.552;-0.848;2023-05-18T08:15:05;14.90;99.90
42743;DHT22;28397;44.552;-0.848;2023-05-18T08:17:31;14.90;99.90
42743;DHT22;28397;44.552;-0.848;2023-05-18T08:19:57;15.00;99.90
42743;DHT22;28397;44.552;-0.848;2023-05-18T08:22:22;15.10;99.90
42743;DHT22;28397;44.552;-0.848;2023-05-18T08:24:48;15.10;99.90
42743;DHT22;28397;44.552;-0.848;2023-05-18T08:27:13;15.20;99.90
42743;DHT22;28397;44.552;-0.848;2023-05-18T08:29:39;15.30;99.90
42743;DHT22;28397;44.552;-0.848;2023-05-18T08:32:05;15.30;99.90
42743;DHT22;28397;44.552;-0.848;2023-05-18T08:34:32;15.50;99.90
42743;DHT22;28397;44.552;-0.848;2023-05-18T08:36:58;15.50;99.90
42743;DHT22;28397;44.552;-0.848;2023-05-18T08:39:24;15.70;99.90
42743;DHT22;28397;44.552;-0.848;2023-05-18T08:44:37;15.70;99.90
42743;DHT22;28397;44.552;-0.848;2023-05-18T08:47:08;15.70;99.90
42743;DHT22;28397;44.552;-0.848;2023-05-18T08:49:35;15.90;99.90
42743;DHT22;28397;44.552;-0.848;2023-05-18T08:52:03;16.00;99.90
42743;DHT22;28397;44.552;-0.848;2023-05-18T08:54:29;16.10;99.90
42743;DHT22;28397;44.552;-0.848;2023-05-18T08:56:56;16.10;99.90
42743;DHT22;28397;44.552;-0.848;2023-05-18T08:59:25;16.10;99.90
42743;DHT22;28397;44.552;-0.848;2023-05-18T09:01:51;16.30;99.90
42743;DHT22;28397;44.552;-0.848;2023-05-18T09:04:20;16.30;99.90
42743;DHT22;28397;44.552;-0.848;2023-05-18T09:06:47;16.50;99.90
42743;DHT22;28397;44.552;-0.848;2023-05-18T09:09:13;16.40;99.90
42743;DHT22;28397;44.552;-0.848;2023-05-18T09:11:40;16.20;99.90
42743;DHT22;28397;44.552;-0.848;2023-05-18T09:14:05;16.20;99.90
42743;DHT22;28397;44.552;-0.848;2023-05-18T09:16:31;16.30;99.90
42743;DHT22;28397;44.552;-0.848;2023-05-18T09:18:58;16.50;99.90
42743;DHT22;28397;44.552;-0.848;2023-05-18T09:21:24;16.60;99.90
42743;DHT22;28397;44.552;-0.848;2023-05-18T09:23:50;16.80;99.90
42743;DHT22;28397;44.552;-0.848;2023-05-18T09:26:18;16.90;99.90
42743;DHT22;28397;44.552;-0.848;2023-05-18T09:28:44;16.90;99.90
42743;DHT22;28397;44.552;-0.848;2023-05-18T09:31:21;17.20;99.90
42743;DHT22;28397;44.552;-0.848;2023-05-18T09:33:48;17.10;99.90
42743;DHT22;28397;44.552;-0.848;2023-05-18T09:36:16;17.10;99.90
42743;DHT22;28397;44.552;-0.848;2023-05-18T09:38:44;17.10;99.90
42743;DHT22;28397;44.552;-0.848;2023-05-18T09:41:16;17.20;99.90
42743;DHT22;28397;44.552;-0.848;2023-05-18T09:43:43;17.40;99.90
42743;DHT22;28397;44.552;-0.848;2023-05-18T09:46:11;17.40;99.90
42743;DHT22;28397;44.552;-0.848;2023-05-18T09:48:41;17.50;99.90
42743;DHT22;28397;44.552;-0.848;2023-05-18T09:51:10;17.50;99.90
42743;DHT22;28397;44.552;-0.848;2023-05-18T09:53:41;17.60;99.90
42743;DHT22;28397;44.552;-0.848;2023-05-18T09:56:07;17.70;99.90
42743;DHT22;28397;44.552;-0.848;2023-05-18T09:58:38;17.70;99.90
42743;DHT22;28397;44.552;-0.848;2023-05-18T10:01:04;17.80;99.90
42743;DHT22;28397;44.552;-0.848;2023-05-18T10:03:34;17.80;99.90
42743;DHT22;28397;44.552;-0.848;2023-05-18T10:06:10;17.80;99.90
42743;DHT22;28397;44.552;-0.848;2023-05-18T10:08:38;17.80;99.90
42743;DHT22;28397;44.552;-0.848;2023-05-18T10:11:04;17.90;99.90
42743;DHT22;28397;44.552;-0.848;2023-05-18T10:13:31;17.90;99.90
42743;DHT22;28397;44.552;-0.848;2023-05-18T10:16:03;17.80;99.90
42743;DHT22;28397;44.552;-0.848;2023-05-18T10:18:31;18.10;99.90
42743;DHT22;28397;44.552;-0.848;2023-05-18T10:20:58;18.20;99.90
42743;DHT22;28397;44.552;-0.848;2023-05-18T10:23:26;18.20;99.90
42743;DHT22;28397;44.552;-0.848;2023-05-18T10:25:53;18.20;99.90
42743;DHT22;28397;44.552;-0.848;2023-05-18T10:28:37;18.30;99.90
42743;DHT22;28397;44.552;-0.848;2023-05-18T10:31:03;18.40;99.90
42743;DHT22;28397;44.552;-0.848;2023-05-18T10:33:31;18.40;99.90
42743;DHT22;28397;44.552;-0.848;2023-05-18T10:35:57;18.50;99.90
42743;DHT22;28397;44.552;-0.848;2023-05-18T10:38:24;18.60;99.90
42743;DHT22;28397;44.552;-0.848;2023-05-18T10:40:55;18.60;99.90
42743;DHT22;28397;44.552;-0.848;2023-05-18T10:43:23;18.70;99.90
42743;DHT22;28397;44.552;-0.848;2023-05-18T10:45:56;18.80;99.90
42743;DHT22;28397;44.552;-0.848;2023-05-18T10:48:24;18.90;99.90
42743;DHT22;28397;44.552;-0.848;2023-05-18T10:50:52;18.90;99.90
42743;DHT22;28397;44.552;-0.848;2023-05-18T10:53:20;18.90;99.90
42743;DHT22;28397;44.552;-0.848;2023-05-18T10:55:52;19.10;99.90
42743;DHT22;28397;44.552;-0.848;2023-05-18T10:58:19;19.00;99.90
42743;DHT22;28397;44.552;-0.848;2023-05-18T11:00:49;19.10;99.90
42743;DHT22;28397;44.552;-0.848;2023-05-18T11:03:17;19.10;99.90
42743;DHT22;28397;44.552;-0.848;2023-05-18T11:05:43;19.20;99.90
42743;DHT22;28397;44.552;-0.848;2023-05-18T11:08:13;19.20;99.90
42743;DHT22;28397;44.552;-0.848;2023-05-18T11:11:01;19.20;99.90
42743;DHT22;28397;44.552;-0.848;2023-05-18T11:13:31;19.40;99.90
42743;DHT22;28397;44.552;-0.848;2023-05-18T11:18:49;19.10;99.90
42743;DHT22;28397;44.552;-0.848;2023-05-18T11:21:28;19.10;99.90
42743;DHT22;28397;44.552;-0.848;2023-05-18T11:26:42;19.60;99.90
42743;DHT22;28397;44.552;-0.848;2023-05-18T11:29:17;19.80;99.90
42743;DHT22;28397;44.552;-0.848;2023-05-18T11:31:45;19.90;99.90
42743;DHT22;28397;44.552;-0.848;2023-05-18T11:34:36;20.00;99.90
42743;DHT22;28397;44.552;-0.848;2023-05-18T11:37:04;19.80;99.90
42743;DHT22;28397;44.552;-0.848;2023-05-18T11:39:31;20.00;99.90
42743;DHT22;28397;44.552;-0.848;2023-05-18T11:44:29;20.00;99.90
42743;DHT22;28397;44.552;-0.848;2023-05-18T11:47:03;20.20;99.90
42743;DHT22;28397;44.552;-0.848;2023-05-18T11:54:49;20.00;99.90
42743;DHT22;28397;44.552;-0.848;2023-05-18T11:57:16;20.10;99.90
42743;DHT22;28397;44.552;-0.848;2023-05-18T11:59:47;20.10;99.90
42743;DHT22;28397;44.552;-0.848;2023-05-18T12:02:20;19.90;99.90
42743;DHT22;28397;44.552;-0.848;2023-05-18T12:04:47;19.90;99.90
42743;DHT22;28397;44.552;-0.848;2023-05-18T12:07:17;20.00;99.90
42743;DHT22;28397;44.552;-0.848;2023-05-18T12:09:44;20.30;99.90
42743;DHT22;28397;44.552;-0.848;2023-05-18T12:12:12;20.40;99.90
42743;DHT22;28397;44.552;-0.848;2023-05-18T12:14:40;20.40;99.90
42743;DHT22;28397;44.552;-0.848;2023-05-18T12:17:12;20.40;99.90
42743;DHT22;28397;44.552;-0.848;2023-05-18T12:19:46;20.20;99.90
42743;DHT22;28397;44.552;-0.848;2023-05-18T12:22:12;20.20;99.90
42743;DHT22;28397;44.552;-0.848;2023-05-18T12:24:39;20.30;99.90
42743;DHT22;28397;44.552;-0.848;2023-05-18T12:27:10;20.50;99.90
42743;DHT22;28397;44.552;-0.848;2023-05-18T12:29:40;20.60;99.90
42743;DHT22;28397;44.552;-0.848;2023-05-18T12:32:07;20.30;99.90
42743;DHT22;28397;44.552;-0.848;2023-05-18T12:34:33;20.40;99.90
42743;DHT22;28397;44.552;-0.848;2023-05-18T12:36:59;20.90;99.90
42743;DHT22;28397;44.552;-0.848;2023-05-18T12:39:25;20.90;99.90
42743;DHT22;28397;44.552;-0.848;2023-05-18T12:41:51;20.50;99.90
42743;DHT22;28397;44.552;-0.848;2023-05-18T12:44:17;20.50;99.90
42743;DHT22;28397;44.552;-0.848;2023-05-18T12:46:43;20.80;99.90
42743;DHT22;28397;44.552;-0.848;2023-05-18T12:49:09;21.00;99.90
42743;DHT22;28397;44.552;-0.848;2023-05-18T12:51:37;21.60;99.90
42743;DHT22;28397;44.552;-0.848;2023-05-18T12:54:05;21.70;99.90
42743;DHT22;28397;44.552;-0.848;2023-05-18T12:56:53;21.70;99.90
42743;DHT22;28397;44.552;-0.848;2023-05-18T12:59:27;21.50;99.90
42743;DHT22;28397;44.552;-0.848;2023-05-18T13:01:54;21.30;99.90
42743;DHT22;28397;44.552;-0.848;2023-05-18T13:04:19;21.20;99.90
42743;DHT22;28397;44.552;-0.848;2023-05-18T13:06:45;21.00;99.90
42743;DHT22;28397;44.552;-0.848;2023-05-18T13:09:13;20.60;99.90
42743;DHT22;28397;44.552;-0.848;2023-05-18T13:11:39;20.30;99.90
42743;DHT22;28397;44.552;-0.848;2023-05-18T13:14:06;20.10;99.90
42743;DHT22;28397;44.552;-0.848;2023-05-18T13:16:37;20.00;99.90
42743;DHT22;28397;44.552;-0.848;2023-05-18T13:19:05;20.20;99.90
42743;DHT22;28397;44.552;-0.848;2023-05-18T13:21:32;20.50;99.90
42743;DHT22;28397;44.552;-0.848;2023-05-18T13:23:59;20.50;99.90
42743;DHT22;28397;44.552;-0.848;2023-05-18T13:26:25;20.50;99.90
42743;DHT22;28397;44.552;-0.848;2023-05-18T13:28:53;20.40;99.90
42743;DHT22;28397;44.552;-0.848;2023-05-18T13:31:20;20.10;99.90
42743;DHT22;28397;44.552;-0.848;2023-05-18T13:33:47;19.90;99.90
42743;DHT22;28397;44.552;-0.848;2023-05-18T13:36:13;19.80;99.90
42743;DHT22;28397;44.552;-0.848;2023-05-18T13:38:40;20.00;99.90
42743;DHT22;28397;44.552;-0.848;2023-05-18T13:41:09;20.00;99.90
42743;DHT22;28397;44.552;-0.848;2023-05-18T13:43:35;20.00;99.90
42743;DHT22;28397;44.552;-0.848;2023-05-18T13:46:03;19.90;99.90
42743;DHT22;28397;44.552;-0.848;2023-05-18T13:48:29;20.00;99.90
42743;DHT22;28397;44.552;-0.848;2023-05-18T13:50:55;19.60;99.90
42743;DHT22;28397;44.552;-0.848;2023-05-18T13:53:22;19.60;99.90
42743;DHT22;28397;44.552;-0.848;2023-05-18T13:55:48;19.80;99.90
42743;DHT22;28397;44.552;-0.848;2023-05-18T13:58:14;20.00;99.90
42743;DHT22;28397;44.552;-0.848;2023-05-18T14:00:40;20.00;99.90
42743;DHT22;28397;44.552;-0.848;2023-05-18T14:03:06;20.00;99.90
42743;DHT22;28397;44.552;-0.848;2023-05-18T14:05:31;20.00;99.90
42743;DHT22;28397;44.552;-0.848;2023-05-18T14:07:57;20.40;99.90
42743;DHT22;28397;44.552;-0.848;2023-05-18T14:10:23;20.40;99.90
42743;DHT22;28397;44.552;-0.848;2023-05-18T14:12:48;20.50;99.90
42743;DHT22;28397;44.552;-0.848;2023-05-18T14:15:14;20.50;99.90
42743;DHT22;28397;44.552;-0.848;2023-05-18T14:17:43;20.40;99.90
42743;DHT22;28397;44.552;-0.848;2023-05-18T14:20:10;20.20;99.90
42743;DHT22;28397;44.552;-0.848;2023-05-18T14:22:36;20.20;99.90
42743;DHT22;28397;44.552;-0.848;2023-05-18T14:25:02;20.20;99.90
42743;DHT22;28397;44.552;-0.848;2023-05-18T14:27:28;19.90;99.90
42743;DHT22;28397;44.552;-0.848;2023-05-18T14:29:54;19.80;99.90
42743;DHT22;28397;44.552;-0.848;2023-05-18T14:32:20;19.90;99.90
42743;DHT22;28397;44.552;-0.848;2023-05-18T14:34:47;19.80;99.90
42743;DHT22;28397;44.552;-0.848;2023-05-18T14:37:16;19.80;99.90
42743;DHT22;28397;44.552;-0.848;2023-05-18T14:39:42;19.50;99.90
42743;DHT22;28397;44.552;-0.848;2023-05-18T14:42:08;19.40;99.90
42743;DHT22;28397;44.552;-0.848;2023-05-18T14:44:33;19.40;99.90
42743;DHT22;28397;44.552;-0.848;2023-05-18T14:46:59;19.30;99.90
42743;DHT22;28397;44.552;-0.848;2023-05-18T14:49:25;19.40;99.90
42743;DHT22;28397;44.552;-0.848;2023-05-18T14:51:51;19.70;99.90
42743;DHT22;28397;44.552;-0.848;2023-05-18T14:54:17;19.50;99.90
42743;DHT22;28397;44.552;-0.848;2023-05-18T14:56:43;19.80;99.90
42743;DHT22;28397;44.552;-0.848;2023-05-18T14:59:09;19.70;99.90
42743;DHT22;28397;44.552;-0.848;2023-05-18T15:01:35;19.60;99.90
42743;DHT22;28397;44.552;-0.848;2023-05-18T15:04:00;19.80;99.90
42743;DHT22;28397;44.552;-0.848;2023-05-18T15:06:27;20.00;99.90
42743;DHT22;28397;44.552;-0.848;2023-05-18T15:08:53;19.70;99.90
42743;DHT22;28397;44.552;-0.848;2023-05-18T15:11:19;19.80;99.90
42743;DHT22;28397;44.552;-0.848;2023-05-18T15:13:46;19.80;99.90
42743;DHT22;28397;44.552;-0.848;2023-05-18T15:16:12;19.60;99.90
42743;DHT22;28397;44.552;-0.848;2023-05-18T15:18:39;19.50;99.90
42743;DHT22;28397;44.552;-0.848;2023-05-18T15:21:04;19.70;99.90
42743;DHT22;28397;44.552;-0.848;2023-05-18T15:23:30;19.70;99.90
42743;DHT22;28397;44.552;-0.848;2023-05-18T15:25:56;19.60;99.90
42743;DHT22;28397;44.552;-0.848;2023-05-18T15:28:22;19.60;99.90
42743;DHT22;28397;44.552;-0.848;2023-05-18T15:30:47;19.90;99.90
42743;DHT22;28397;44.552;-0.848;2023-05-18T15:33:13;20.10;99.90
42743;DHT22;28397;44.552;-0.848;2023-05-18T15:35:39;20.00;99.90
42743;DHT22;28397;44.552;-0.848;2023-05-18T15:38:04;20.20;99.90
42743;DHT22;28397;44.552;-0.848;2023-05-18T15:40:30;20.10;99.90
42743;DHT22;28397;44.552;-0.848;2023-05-18T15:42:56;20.10;99.90
42743;DHT22;28397;44.552;-0.848;2023-05-18T15:45:22;20.40;99.90
42743;DHT22;28397;44.552;-0.848;2023-05-18T15:47:47;20.40;99.90